Terminal Aerodrome Forecast
Issued by NWS Cleveland, OH

Home | Current Version | Previous Version | Graphics & Text | Print | Product List | Glossary On
Versions: 1 2 3 4 5 6 7 8 9 10 11 12 13 14 15 16 17 18 19 20 21 22 23 24 25 26 27 28 29 30 31 32 33 34 35 36 37
000
FTUS41 KCLE 220400 AAA
TAFCLE
TAF AMD
KCLE 220415Z 2204/2306 23010KT P6SM SCT080 OVC150
     FM220800 22010KT P6SM -SHRA BKN035 OVC050
      TEMPO 2208/2211 5SM -SHRA OVC012
     FM221100 27012KT 5SM -SHRA BKN008 OVC025
     FM221300 32014G22KT P6SM OVC009
     FM221600 32020G28KT P6SM BKN025
     FM222300 33012G22KT P6SM VCSH BKN035=

USA.gov is the U.S. government's official web portal to all federal, state and local government web resources and services.